sensor_id;sensor_type;location;lat;lon;timestamp;P1;durP1;ratioP1;P2;durP2;ratioP2
16800;SDS011;8518;53.236;10.384;2023-02-28T00:01:29;8.87;;;5.23;;
16800;SDS011;8518;53.236;10.384;2023-02-28T00:03:55;9.03;;;5.67;;
16800;SDS011;8518;53.236;10.384;2023-02-28T00:06:21;8.03;;;5.33;;
16800;SDS011;8518;53.236;10.384;2023-02-28T00:08:46;7.47;;;5.13;;
16800;SDS011;8518;53.236;10.384;2023-02-28T00:11:13;8.37;;;5.37;;
16800;SDS011;8518;53.236;10.384;2023-02-28T00:17:02;7.77;;;4.87;;
16800;SDS011;8518;53.236;10.384;2023-02-28T00:22:51;8.50;;;5.40;;
16800;SDS011;8518;53.236;10.384;2023-02-28T00:25:19;10.10;;;5.93;;
16800;SDS011;8518;53.236;10.384;2023-02-28T00:27:47;8.33;;;6.37;;
16800;SDS011;8518;53.236;10.384;2023-02-28T00:30:14;9.30;;;5.80;;
16800;SDS011;8518;53.236;10.384;2023-02-28T00:36:05;9.07;;;5.87;;
16800;SDS011;8518;53.236;10.384;2023-02-28T00:38:33;9.43;;;5.77;;
16800;SDS011;8518;53.236;10.384;2023-02-28T00:41:01;6.00;;;4.77;;
16800;SDS011;8518;53.236;10.384;2023-02-28T00:46:51;8.17;;;5.63;;
16800;SDS011;8518;53.236;10.384;2023-02-28T00:52:40;8.30;;;5.63;;
16800;SDS011;8518;53.236;10.384;2023-02-28T00:55:06;8.90;;;4.93;;
16800;SDS011;8518;53.236;10.384;2023-02-28T00:57:32;7.67;;;5.17;;
16800;SDS011;8518;53.236;10.384;2023-02-28T00:59:58;8.50;;;5.67;;
16800;SDS011;8518;53.236;10.384;2023-02-28T01:05:46;6.87;;;4.50;;
16800;SDS011;8518;53.236;10.384;2023-02-28T01:08:13;9.17;;;5.60;;
16800;SDS011;8518;53.236;10.384;2023-02-28T01:10:39;6.63;;;4.30;;
16800;SDS011;8518;53.236;10.384;2023-02-28T01:16:28;8.13;;;5.00;;
16800;SDS011;8518;53.236;10.384;2023-02-28T01:22:17;7.77;;;5.00;;
16800;SDS011;8518;53.236;10.384;2023-02-28T01:24:42;10.00;;;5.67;;
16800;SDS011;8518;53.236;10.384;2023-02-28T01:27:08;6.60;;;5.20;;
16800;SDS011;8518;53.236;10.384;2023-02-28T01:29:34;8.37;;;5.77;;
16800;SDS011;8518;53.236;10.384;2023-02-28T01:35:23;8.83;;;5.40;;
16800;SDS011;8518;53.236;10.384;2023-02-28T01:41:15;7.80;;;5.13;;
16800;SDS011;8518;53.236;10.384;2023-02-28T01:47:05;7.97;;;5.20;;
16800;SDS011;8518;53.236;10.384;2023-02-28T01:49:31;7.60;;;5.07;;
16800;SDS011;8518;53.236;10.384;2023-02-28T01:55:19;6.63;;;4.60;;
16800;SDS011;8518;53.236;10.384;2023-02-28T01:57:48;7.40;;;5.10;;
16800;SDS011;8518;53.236;10.384;2023-02-28T02:00:20;6.73;;;4.70;;
16800;SDS011;8518;53.236;10.384;2023-02-28T02:06:10;7.90;;;5.17;;
16800;SDS011;8518;53.236;10.384;2023-02-28T02:08:36;6.83;;;4.73;;
16800;SDS011;8518;53.236;10.384;2023-02-28T02:11:03;6.17;;;4.73;;
16800;SDS011;8518;53.236;10.384;2023-02-28T02:25:45;6.67;;;4.20;;
16800;SDS011;8518;53.236;10.384;2023-02-28T02:34:06;7.13;;;3.83;;
16800;SDS011;8518;53.236;10.384;2023-02-28T02:36:35;5.20;;;3.83;;
16800;SDS011;8518;53.236;10.384;2023-02-28T02:39:16;6.93;;;4.20;;
16800;SDS011;8518;53.236;10.384;2023-02-28T02:51:47;5.27;;;3.77;;
16800;SDS011;8518;53.236;10.384;2023-02-28T02:54:19;5.53;;;4.03;;
16800;SDS011;8518;53.236;10.384;2023-02-28T02:56:48;5.60;;;3.53;;
16800;SDS011;8518;53.236;10.384;2023-02-28T02:59:18;6.60;;;4.73;;
16800;SDS011;8518;53.236;10.384;2023-02-28T03:01:51;6.60;;;4.10;;
16800;SDS011;8518;53.236;10.384;2023-02-28T03:04:20;8.13;;;4.37;;
16800;SDS011;8518;53.236;10.384;2023-02-28T03:06:49;6.03;;;4.40;;
16800;SDS011;8518;53.236;10.384;2023-02-28T03:09:22;7.17;;;4.17;;
16800;SDS011;8518;53.236;10.384;2023-02-28T03:15:18;4.97;;;3.23;;
16800;SDS011;8518;53.236;10.384;2023-02-28T03:27:04;6.30;;;4.07;;
16800;SDS011;8518;53.236;10.384;2023-02-28T03:29:50;5.87;;;4.43;;
16800;SDS011;8518;53.236;10.384;2023-02-28T03:35:55;7.23;;;3.00;;
16800;SDS011;8518;53.236;10.384;2023-02-28T03:41:19;4.80;;;3.50;;
16800;SDS011;8518;53.236;10.384;2023-02-28T03:43:55;5.10;;;3.60;;
16800;SDS011;8518;53.236;10.384;2023-02-28T03:46:25;5.83;;;3.70;;
16800;SDS011;8518;53.236;10.384;2023-02-28T03:49:36;4.53;;;3.53;;
16800;SDS011;8518;53.236;10.384;2023-02-28T03:55:11;6.47;;;3.60;;
16800;SDS011;8518;53.236;10.384;2023-02-28T03:57:40;5.47;;;3.60;;
16800;SDS011;8518;53.236;10.384;2023-02-28T04:00:34;5.10;;;3.37;;
16800;SDS011;8518;53.236;10.384;2023-02-28T04:06:25;5.73;;;3.33;;
16800;SDS011;8518;53.236;10.384;2023-02-28T04:12:14;3.83;;;3.37;;
16800;SDS011;8518;53.236;10.384;2023-02-28T04:14:40;5.77;;;3.47;;
16800;SDS011;8518;53.236;10.384;2023-02-28T04:17:06;3.97;;;3.33;;
16800;SDS011;8518;53.236;10.384;2023-02-28T04:19:32;5.03;;;3.20;;
16800;SDS011;8518;53.236;10.384;2023-02-28T04:25:20;4.67;;;3.57;;
16800;SDS011;8518;53.236;10.384;2023-02-28T04:27:45;3.90;;;3.30;;
16800;SDS011;8518;53.236;10.384;2023-02-28T04:30:11;4.30;;;3.40;;
16800;SDS011;8518;53.236;10.384;2023-02-28T04:36:04;7.10;;;3.73;;
16800;SDS011;8518;53.236;10.384;2023-02-28T04:38:35;5.70;;;3.90;;
16800;SDS011;8518;53.236;10.384;2023-02-28T04:41:03;4.27;;;3.20;;
16800;SDS011;8518;53.236;10.384;2023-02-28T04:46:51;5.77;;;3.63;;
16800;SDS011;8518;53.236;10.384;2023-02-28T04:49:17;6.27;;;3.87;;
16800;SDS011;8518;53.236;10.384;2023-02-28T04:51:43;5.43;;;3.60;;
16800;SDS011;8518;53.236;10.384;2023-02-28T04:54:09;7.50;;;3.87;;
16800;SDS011;8518;53.236;10.384;2023-02-28T04:56:35;6.23;;;3.93;;
16800;SDS011;8518;53.236;10.384;2023-02-28T04:59:01;5.87;;;4.30;;
16800;SDS011;8518;53.236;10.384;2023-02-28T05:01:28;6.70;;;4.80;;
16800;SDS011;8518;53.236;10.384;2023-02-28T05:03:56;4.77;;;3.50;;
16800;SDS011;8518;53.236;10.384;2023-02-28T05:06:23;5.90;;;3.87;;
16800;SDS011;8518;53.236;10.384;2023-02-28T05:08:53;6.27;;;3.80;;
16800;SDS011;8518;53.236;10.384;2023-02-28T05:11:26;5.50;;;3.50;;
16800;SDS011;8518;53.236;10.384;2023-02-28T05:13:54;5.70;;;3.70;;
16800;SDS011;8518;53.236;10.384;2023-02-28T05:16:21;5.33;;;3.70;;
16800;SDS011;8518;53.236;10.384;2023-02-28T05:18:47;5.83;;;4.20;;
16800;SDS011;8518;53.236;10.384;2023-02-28T05:23:50;8.60;;;5.40;;
16800;SDS011;8518;53.236;10.384;2023-02-28T05:26:17;9.10;;;5.93;;
16800;SDS011;8518;53.236;10.384;2023-02-28T05:28:43;12.87;;;7.90;;
16800;SDS011;8518;53.236;10.384;2023-02-28T05:31:12;12.43;;;7.40;;
16800;SDS011;8518;53.236;10.384;2023-02-28T05:37:00;10.57;;;6.27;;
16800;SDS011;8518;53.236;10.384;2023-02-28T05:39:26;7.27;;;5.10;;
16800;SDS011;8518;53.236;10.384;2023-02-28T05:45:14;5.57;;;3.73;;
16800;SDS011;8518;53.236;10.384;2023-02-28T05:51:02;6.53;;;4.00;;
16800;SDS011;8518;53.236;10.384;2023-02-28T05:56:50;6.10;;;3.67;;
16800;SDS011;8518;53.236;10.384;2023-02-28T05:59:19;5.40;;;4.20;;
16800;SDS011;8518;53.236;10.384;2023-02-28T06:01:45;5.87;;;4.20;;
16800;SDS011;8518;53.236;10.384;2023-02-28T06:04:13;5.13;;;4.17;;
16800;SDS011;8518;53.236;10.384;2023-02-28T06:06:43;5.47;;;3.80;;
16800;SDS011;8518;53.236;10.384;2023-02-28T06:09:12;4.40;;;3.40;;
16800;SDS011;8518;53.236;10.384;2023-02-28T06:11:38;5.37;;;3.60;;
16800;SDS011;8518;53.236;10.384;2023-02-28T06:14:04;4.93;;;3.90;;
16800;SDS011;8518;53.236;10.384;2023-02-28T06:16:37;6.33;;;3.80;;
16800;SDS011;8518;53.236;10.384;2023-02-28T06:19:03;4.33;;;3.70;;
16800;SDS011;8518;53.236;10.384;2023-02-28T06:21:30;6.03;;;4.17;;
16800;SDS011;8518;53.236;10.384;2023-02-28T06:23:56;5.70;;;4.33;;
16800;SDS011;8518;53.236;10.384;2023-02-28T06:26:23;5.90;;;3.70;;
16800;SDS011;8518;53.236;10.384;2023-02-28T06:28:49;5.50;;;3.67;;
16800;SDS011;8518;53.236;10.384;2023-02-28T06:31:18;5.47;;;3.67;;
16800;SDS011;8518;53.236;10.384;2023-02-28T06:37:06;4.30;;;3.37;;
16800;SDS011;8518;53.236;10.384;2023-02-28T06:39:31;5.40;;;3.63;;
16800;SDS011;8518;53.236;10.384;2023-02-28T06:45:19;5.63;;;3.37;;
16800;SDS011;8518;53.236;10.384;2023-02-28T06:47:51;4.13;;;3.30;;
16800;SDS011;8518;53.236;10.384;2023-02-28T06:50:17;5.97;;;3.50;;
16800;SDS011;8518;53.236;10.384;2023-02-28T06:56:13;5.27;;;3.60;;
16800;SDS011;8518;53.236;10.384;2023-02-28T06:58:40;4.30;;;3.47;;
16800;SDS011;8518;53.236;10.384;2023-02-28T07:01:07;9.60;;;4.27;;
16800;SDS011;8518;53.236;10.384;2023-02-28T07:06:56;5.20;;;3.30;;
16800;SDS011;8518;53.236;10.384;2023-02-28T07:12:44;4.33;;;2.90;;
16800;SDS011;8518;53.236;10.384;2023-02-28T07:15:10;4.63;;;3.00;;
16800;SDS011;8518;53.236;10.384;2023-02-28T07:17:37;5.00;;;3.00;;
16800;SDS011;8518;53.236;10.384;2023-02-28T07:20:03;3.57;;;2.97;;
16800;SDS011;8518;53.236;10.384;2023-02-28T07:25:51;3.87;;;2.90;;
16800;SDS011;8518;53.236;10.384;2023-02-28T07:28:17;3.67;;;3.30;;
16800;SDS011;8518;53.236;10.384;2023-02-28T07:30:46;4.47;;;3.50;;
16800;SDS011;8518;53.236;10.384;2023-02-28T07:36:35;4.00;;;3.20;;
16800;SDS011;8518;53.236;10.384;2023-02-28T07:39:01;4.50;;;2.53;;
16800;SDS011;8518;53.236;10.384;2023-02-28T07:41:27;4.83;;;2.93;;
16800;SDS011;8518;53.236;10.384;2023-02-28T07:43:54;4.67;;;3.53;;
16800;SDS011;8518;53.236;10.384;2023-02-28T07:46:22;6.23;;;3.17;;
16800;SDS011;8518;53.236;10.384;2023-02-28T07:48:48;3.53;;;2.83;;
16800;SDS011;8518;53.236;10.384;2023-02-28T07:51:14;3.53;;;2.83;;
16800;SDS011;8518;53.236;10.384;2023-02-28T07:57:02;4.43;;;2.77;;
16800;SDS011;8518;53.236;10.384;2023-02-28T07:59:28;3.90;;;3.13;;
16800;SDS011;8518;53.236;10.384;2023-02-28T08:05:16;7.50;;;4.63;;
16800;SDS011;8518;53.236;10.384;2023-02-28T08:07:42;4.83;;;3.60;;
16800;SDS011;8518;53.236;10.384;2023-02-28T08:10:07;5.57;;;3.10;;
16800;SDS011;8518;53.236;10.384;2023-02-28T08:15:57;3.42;;;2.83;;
16800;SDS011;8518;53.236;10.384;2023-02-28T08:18:23;3.42;;;2.83;;
16800;SDS011;8518;53.236;10.384;2023-02-28T08:20:49;4.18;;;2.45;;
16800;SDS011;8518;53.236;10.384;2023-02-28T08:26:37;3.53;;;2.70;;
16800;SDS011;8518;53.236;10.384;2023-02-28T08:32:24;2.63;;;2.30;;
16800;SDS011;8518;53.236;10.384;2023-02-28T08:34:50;3.05;;;2.30;;
16800;SDS011;8518;53.236;10.384;2023-02-28T08:37:16;3.50;;;2.50;;
16800;SDS011;8518;53.236;10.384;2023-02-28T08:39:42;2.63;;;2.30;;
16800;SDS011;8518;53.236;10.384;2023-02-28T08:45:29;2.70;;;2.33;;
16800;SDS011;8518;53.236;10.384;2023-02-28T08:51:17;3.33;;;2.40;;
16800;SDS011;8518;53.236;10.384;2023-02-28T08:53:47;3.88;;;2.30;;
16800;SDS011;8518;53.236;10.384;2023-02-28T08:56:14;2.90;;;2.25;;
16800;SDS011;8518;53.236;10.384;2023-02-28T08:58:44;2.97;;;2.20;;
16800;SDS011;8518;53.236;10.384;2023-02-28T09:01:21;2.78;;;2.45;;
16800;SDS011;8518;53.236;10.384;2023-02-28T09:03:48;2.90;;;2.50;;
16800;SDS011;8518;53.236;10.384;2023-02-28T09:06:16;2.67;;;2.20;;
16800;SDS011;8518;53.236;10.384;2023-02-28T09:08:43;2.40;;;2.17;;
16800;SDS011;8518;53.236;10.384;2023-02-28T09:11:09;3.10;;;2.50;;
16800;SDS011;8518;53.236;10.384;2023-02-28T09:16:57;3.58;;;2.55;;
16800;SDS011;8518;53.236;10.384;2023-02-28T09:19:23;2.95;;;2.40;;
16800;SDS011;8518;53.236;10.384;2023-02-28T09:25:10;4.13;;;2.78;;
16800;SDS011;8518;53.236;10.384;2023-02-28T09:27:36;3.78;;;2.78;;
16800;SDS011;8518;53.236;10.384;2023-02-28T09:30:02;5.03;;;3.20;;
16800;SDS011;8518;53.236;10.384;2023-02-28T09:35:50;2.38;;;1.90;;
16800;SDS011;8518;53.236;10.384;2023-02-28T09:38:22;1.90;;;1.70;;
16800;SDS011;8518;53.236;10.384;2023-02-28T09:40:49;2.42;;;1.70;;
16800;SDS011;8518;53.236;10.384;2023-02-28T09:46:40;2.22;;;1.90;;
16800;SDS011;8518;53.236;10.384;2023-02-28T09:49:11;2.97;;;1.90;;
16800;SDS011;8518;53.236;10.384;2023-02-28T09:57:40;2.47;;;1.95;;
16800;SDS011;8518;53.236;10.384;2023-02-28T10:00:21;2.55;;;1.90;;
16800;SDS011;8518;53.236;10.384;2023-02-28T10:03:24;3.65;;;1.70;;
16800;SDS011;8518;53.236;10.384;2023-02-28T10:06:12;2.17;;;1.65;;
16800;SDS011;8518;53.236;10.384;2023-02-28T10:08:45;2.20;;;1.33;;
16800;SDS011;8518;53.236;10.384;2023-02-28T10:11:25;1.30;;;1.20;;
16800;SDS011;8518;53.236;10.384;2023-02-28T10:16:34;1.10;;;1.00;;
16800;SDS011;8518;53.236;10.384;2023-02-28T10:19:20;0.88;;;0.70;;
16800;SDS011;8518;53.236;10.384;2023-02-28T10:25:17;1.40;;;0.73;;
16800;SDS011;8518;53.236;10.384;2023-02-28T10:27:48;1.15;;;0.90;;
16800;SDS011;8518;53.236;10.384;2023-02-28T10:30:15;1.10;;;0.95;;
16800;SDS011;8518;53.236;10.384;2023-02-28T10:36:04;1.17;;;1.02;;
16800;SDS011;8518;53.236;10.384;2023-02-28T10:41:06;1.23;;;0.90;;
16800;SDS011;8518;53.236;10.384;2023-02-28T10:46:58;2.55;;;1.38;;
16800;SDS011;8518;53.236;10.384;2023-02-28T10:49:28;1.20;;;1.10;;
16800;SDS011;8518;53.236;10.384;2023-02-28T10:55:21;1.55;;;1.10;;
16800;SDS011;8518;53.236;10.384;2023-02-28T10:57:48;1.98;;;1.50;;
16800;SDS011;8518;53.236;10.384;2023-02-28T11:00:19;1.55;;;1.27;;
16800;SDS011;8518;53.236;10.384;2023-02-28T11:08:43;1.90;;;1.30;;
16800;SDS011;8518;53.236;10.384;2023-02-28T11:11:24;1.60;;;1.50;;
16800;SDS011;8518;53.236;10.384;2023-02-28T11:13:53;2.30;;;1.52;;
16800;SDS011;8518;53.236;10.384;2023-02-28T11:16:21;1.60;;;1.50;;
16800;SDS011;8518;53.236;10.384;2023-02-28T11:18:55;2.25;;;1.60;;
16800;SDS011;8518;53.236;10.384;2023-02-28T11:21:27;1.92;;;1.20;;
16800;SDS011;8518;53.236;10.384;2023-02-28T11:23:57;2.25;;;1.33;;
16800;SDS011;8518;53.236;10.384;2023-02-28T11:26:46;1.42;;;0.70;;
16800;SDS011;8518;53.236;10.384;2023-02-28T11:29:17;1.55;;;1.00;;
16800;SDS011;8518;53.236;10.384;2023-02-28T11:31:48;1.42;;;0.90;;
16800;SDS011;8518;53.236;10.384;2023-02-28T11:34:27;1.08;;;0.80;;
16800;SDS011;8518;53.236;10.384;2023-02-28T11:36:54;1.10;;;0.70;;
16800;SDS011;8518;53.236;10.384;2023-02-28T11:39:22;0.90;;;0.60;;
16800;SDS011;8518;53.236;10.384;2023-02-28T11:51:32;1.20;;;0.80;;
16800;SDS011;8518;53.236;10.384;2023-02-28T11:54:13;1.10;;;0.65;;
16800;SDS011;8518;53.236;10.384;2023-02-28T11:56:57;1.35;;;0.95;;
16800;SDS011;8518;53.236;10.384;2023-02-28T12:06:01;2.65;;;0.70;;
16800;SDS011;8518;53.236;10.384;2023-02-28T12:14:10;0.85;;;0.52;;
16800;SDS011;8518;53.236;10.384;2023-02-28T12:16:53;1.27;;;0.70;;
16800;SDS011;8518;53.236;10.384;2023-02-28T12:28:10;2.25;;;0.75;;
16800;SDS011;8518;53.236;10.384;2023-02-28T12:33:55;1.60;;;0.70;;
16800;SDS011;8518;53.236;10.384;2023-02-28T12:36:26;1.52;;;0.80;;
16800;SDS011;8518;53.236;10.384;2023-02-28T12:39:01;1.08;;;0.85;;
16800;SDS011;8518;53.236;10.384;2023-02-28T12:45:01;1.80;;;1.10;;
16800;SDS011;8518;53.236;10.384;2023-02-28T12:47:32;3.15;;;1.00;;
16800;SDS011;8518;53.236;10.384;2023-02-28T12:50:05;1.52;;;1.05;;
16800;SDS011;8518;53.236;10.384;2023-02-28T12:58:56;2.35;;;1.20;;
16800;SDS011;8518;53.236;10.384;2023-02-28T13:01:32;2.22;;;1.10;;
16800;SDS011;8518;53.236;10.384;2023-02-28T13:10:18;1.15;;;0.82;;
16800;SDS011;8518;53.236;10.384;2023-02-28T13:16:07;1.30;;;1.00;;
16800;SDS011;8518;53.236;10.384;2023-02-28T13:18:35;1.38;;;0.77;;
16800;SDS011;8518;53.236;10.384;2023-02-28T13:21:02;1.35;;;0.77;;
16800;SDS011;8518;53.236;10.384;2023-02-28T13:29:25;1.80;;;0.90;;
16800;SDS011;8518;53.236;10.384;2023-02-28T13:35:37;1.95;;;1.15;;
16800;SDS011;8518;53.236;10.384;2023-02-28T13:38:41;1.73;;;0.80;;
16800;SDS011;8518;53.236;10.384;2023-02-28T13:44:07;1.05;;;0.90;;
16800;SDS011;8518;53.236;10.384;2023-02-28T13:47:22;2.40;;;0.88;;
16800;SDS011;8518;53.236;10.384;2023-02-28T13:55:23;1.63;;;1.00;;
16800;SDS011;8518;53.236;10.384;2023-02-28T14:06:49;1.30;;;0.90;;
16800;SDS011;8518;53.236;10.384;2023-02-28T14:09:27;1.95;;;0.80;;
16800;SDS011;8518;53.236;10.384;2023-02-28T14:20:49;1.55;;;1.10;;
16800;SDS011;8518;53.236;10.384;2023-02-28T14:26:58;3.70;;;1.23;;
16800;SDS011;8518;53.236;10.384;2023-02-28T14:38:35;1.73;;;0.75;;
16800;SDS011;8518;53.236;10.384;2023-02-28T14:41:12;1.27;;;0.70;;
16800;SDS011;8518;53.236;10.384;2023-02-28T14:43:57;1.75;;;1.20;;
16800;SDS011;8518;53.236;10.384;2023-02-28T14:46:37;3.07;;;1.00;;
16800;SDS011;8518;53.236;10.384;2023-02-28T14:49:05;1.57;;;0.87;;
16800;SDS011;8518;53.236;10.384;2023-02-28T14:51:34;1.63;;;0.60;;
16800;SDS011;8518;53.236;10.384;2023-02-28T14:54:00;1.43;;;0.80;;
16800;SDS011;8518;53.236;10.384;2023-02-28T14:56:34;2.50;;;0.90;;
16800;SDS011;8518;53.236;10.384;2023-02-28T14:59:02;2.60;;;1.00;;
16800;SDS011;8518;53.236;10.384;2023-02-28T15:01:31;1.90;;;1.03;;
16800;SDS011;8518;53.236;10.384;2023-02-28T15:04:05;1.23;;;0.87;;
16800;SDS011;8518;53.236;10.384;2023-02-28T15:06:32;2.83;;;0.80;;
16800;SDS011;8518;53.236;10.384;2023-02-28T15:11:38;4.07;;;0.90;;
16800;SDS011;8518;53.236;10.384;2023-02-28T15:14:04;1.77;;;1.13;;
16800;SDS011;8518;53.236;10.384;2023-02-28T15:19:14;1.00;;;0.90;;
16800;SDS011;8518;53.236;10.384;2023-02-28T15:21:46;2.43;;;0.93;;
16800;SDS011;8518;53.236;10.384;2023-02-28T15:24:19;1.60;;;1.10;;
16800;SDS011;8518;53.236;10.384;2023-02-28T15:29:47;1.23;;;0.70;;
16800;SDS011;8518;53.236;10.384;2023-02-28T15:35:37;1.17;;;0.73;;
16800;SDS011;8518;53.236;10.384;2023-02-28T15:38:13;1.47;;;0.70;;
16800;SDS011;8518;53.236;10.384;2023-02-28T15:40:51;2.40;;;0.87;;
16800;SDS011;8518;53.236;10.384;2023-02-28T15:46:41;1.63;;;0.80;;
16800;SDS011;8518;53.236;10.384;2023-02-28T15:49:19;1.27;;;0.70;;
16800;SDS011;8518;53.236;10.384;2023-02-28T15:51:45;2.67;;;0.73;;
16800;SDS011;8518;53.236;10.384;2023-02-28T15:54:23;1.00;;;0.83;;
16800;SDS011;8518;53.236;10.384;2023-02-28T15:57:04;1.53;;;0.87;;
16800;SDS011;8518;53.236;10.384;2023-02-28T15:59:33;1.37;;;0.87;;
16800;SDS011;8518;53.236;10.384;2023-02-28T16:05:24;2.97;;;1.20;;
16800;SDS011;8518;53.236;10.384;2023-02-28T16:08:13;1.40;;;1.00;;
16800;SDS011;8518;53.236;10.384;2023-02-28T16:10:43;2.37;;;1.00;;
16800;SDS011;8518;53.236;10.384;2023-02-28T16:16:31;1.73;;;1.10;;
16800;SDS011;8518;53.236;10.384;2023-02-28T16:19:00;2.50;;;1.10;;
16800;SDS011;8518;53.236;10.384;2023-02-28T16:21:26;2.90;;;1.37;;
16800;SDS011;8518;53.236;10.384;2023-02-28T16:23:51;1.53;;;1.33;;
16800;SDS011;8518;53.236;10.384;2023-02-28T16:26:23;1.97;;;1.13;;
16800;SDS011;8518;53.236;10.384;2023-02-28T16:28:51;2.90;;;1.10;;
16800;SDS011;8518;53.236;10.384;2023-02-28T16:31:17;2.00;;;1.00;;
16800;SDS011;8518;53.236;10.384;2023-02-28T16:37:09;2.53;;;1.10;;
16800;SDS011;8518;53.236;10.384;2023-02-28T16:39:37;4.10;;;1.60;;
16800;SDS011;8518;53.236;10.384;2023-02-28T16:45:26;4.23;;;1.60;;
16800;SDS011;8518;53.236;10.384;2023-02-28T16:51:15;4.07;;;2.23;;
16800;SDS011;8518;53.236;10.384;2023-02-28T16:57:04;2.80;;;1.73;;
16800;SDS011;8518;53.236;10.384;2023-02-28T16:59:30;3.27;;;2.00;;
16800;SDS011;8518;53.236;10.384;2023-02-28T17:05:19;3.10;;;1.60;;
16800;SDS011;8518;53.236;10.384;2023-02-28T17:07:46;2.00;;;1.30;;
16800;SDS011;8518;53.236;10.384;2023-02-28T17:10:22;3.33;;;1.30;;
16800;SDS011;8518;53.236;10.384;2023-02-28T17:16:19;1.90;;;1.27;;
16800;SDS011;8518;53.236;10.384;2023-02-28T17:18:56;3.27;;;1.70;;
16800;SDS011;8518;53.236;10.384;2023-02-28T17:21:25;4.30;;;2.33;;
16800;SDS011;8518;53.236;10.384;2023-02-28T17:23:58;3.90;;;2.07;;
16800;SDS011;8518;53.236;10.384;2023-02-28T17:26:37;2.37;;;1.43;;
16800;SDS011;8518;53.236;10.384;2023-02-28T17:29:05;4.30;;;1.93;;
16800;SDS011;8518;53.236;10.384;2023-02-28T17:31:38;5.57;;;2.90;;
16800;SDS011;8518;53.236;10.384;2023-02-28T17:34:04;4.17;;;3.07;;
16800;SDS011;8518;53.236;10.384;2023-02-28T17:36:35;5.53;;;4.10;;
16800;SDS011;8518;53.236;10.384;2023-02-28T17:39:11;5.83;;;4.47;;
16800;SDS011;8518;53.236;10.384;2023-02-28T17:41:44;6.00;;;3.70;;
16800;SDS011;8518;53.236;10.384;2023-02-28T17:44:13;8.70;;;5.93;;
16800;SDS011;8518;53.236;10.384;2023-02-28T17:46:38;11.23;;;7.20;;
16800;SDS011;8518;53.236;10.384;2023-02-28T17:49:05;6.53;;;4.10;;
16800;SDS011;8518;53.236;10.384;2023-02-28T17:51:31;5.43;;;4.20;;
16800;SDS011;8518;53.236;10.384;2023-02-28T17:53:57;6.77;;;5.40;;
16800;SDS011;8518;53.236;10.384;2023-02-28T17:56:24;6.37;;;4.27;;
16800;SDS011;8518;53.236;10.384;2023-02-28T17:58:54;5.87;;;4.10;;
16800;SDS011;8518;53.236;10.384;2023-02-28T18:01:26;5.13;;;4.33;;
16800;SDS011;8518;53.236;10.384;2023-02-28T18:03:58;11.97;;;7.20;;
16800;SDS011;8518;53.236;10.384;2023-02-28T18:06:43;8.90;;;4.63;;
16800;SDS011;8518;53.236;10.384;2023-02-28T18:09:16;7.07;;;4.63;;
16800;SDS011;8518;53.236;10.384;2023-02-28T18:11:46;6.70;;;4.90;;
16800;SDS011;8518;53.236;10.384;2023-02-28T18:14:20;13.00;;;6.77;;
16800;SDS011;8518;53.236;10.384;2023-02-28T18:16:52;13.57;;;7.37;;
16800;SDS011;8518;53.236;10.384;2023-02-28T18:19:19;15.83;;;8.30;;
16800;SDS011;8518;53.236;10.384;2023-02-28T18:21:49;14.50;;;8.77;;
16800;SDS011;8518;53.236;10.384;2023-02-28T18:24:17;12.90;;;7.73;;
16800;SDS011;8518;53.236;10.384;2023-02-28T18:26:44;9.67;;;5.77;;
16800;SDS011;8518;53.236;10.384;2023-02-28T18:29:15;11.93;;;7.33;;
16800;SDS011;8518;53.236;10.384;2023-02-28T18:35:10;14.50;;;7.80;;
16800;SDS011;8518;53.236;10.384;2023-02-28T18:37:36;14.23;;;8.87;;
16800;SDS011;8518;53.236;10.384;2023-02-28T18:40:03;70.10;;;38.23;;
16800;SDS011;8518;53.236;10.384;2023-02-28T18:45:52;40.50;;;23.47;;
16800;SDS011;8518;53.236;10.384;2023-02-28T18:51:41;25.10;;;14.13;;
16800;SDS011;8518;53.236;10.384;2023-02-28T18:54:12;21.47;;;12.30;;
16800;SDS011;8518;53.236;10.384;2023-02-28T18:56:42;18.40;;;11.13;;
16800;SDS011;8518;53.236;10.384;2023-02-28T18:59:11;35.20;;;20.47;;
16800;SDS011;8518;53.236;10.384;2023-02-28T19:01:43;52.20;;;26.63;;
16800;SDS011;8518;53.236;10.384;2023-02-28T19:04:11;47.10;;;23.73;;
16800;SDS011;8518;53.236;10.384;2023-02-28T19:06:37;48.30;;;22.10;;
16800;SDS011;8518;53.236;10.384;2023-02-28T19:09:09;39.73;;;18.83;;
16800;SDS011;8518;53.236;10.384;2023-02-28T19:11:40;41.03;;;19.80;;
16800;SDS011;8518;53.236;10.384;2023-02-28T19:14:06;27.67;;;14.70;;
16800;SDS011;8518;53.236;10.384;2023-02-28T19:16:37;11.80;;;6.73;;
16800;SDS011;8518;53.236;10.384;2023-02-28T19:25:31;7.87;;;4.93;;
16800;SDS011;8518;53.236;10.384;2023-02-28T19:28:06;5.30;;;3.97;;
16800;SDS011;8518;53.236;10.384;2023-02-28T19:30:33;4.73;;;3.27;;
16800;SDS011;8518;53.236;10.384;2023-02-28T19:36:21;6.27;;;4.83;;
16800;SDS011;8518;53.236;10.384;2023-02-28T19:42:12;5.97;;;4.30;;
16800;SDS011;8518;53.236;10.384;2023-02-28T19:45:20;4.90;;;4.03;;
16800;SDS011;8518;53.236;10.384;2023-02-28T19:47:46;4.47;;;3.47;;
16800;SDS011;8518;53.236;10.384;2023-02-28T19:50:12;5.97;;;3.77;;
16800;SDS011;8518;53.236;10.384;2023-02-28T19:56:05;6.10;;;4.40;;
16800;SDS011;8518;53.236;10.384;2023-02-28T19:58:37;4.57;;;4.17;;
16800;SDS011;8518;53.236;10.384;2023-02-28T20:01:10;5.03;;;4.17;;
16800;SDS011;8518;53.236;10.384;2023-02-28T20:07:07;6.80;;;4.43;;
16800;SDS011;8518;53.236;10.384;2023-02-28T20:13:10;4.87;;;3.67;;
16800;SDS011;8518;53.236;10.384;2023-02-28T20:15:58;5.37;;;3.53;;
16800;SDS011;8518;53.236;10.384;2023-02-28T20:19:06;4.60;;;2.77;;
16800;SDS011;8518;53.236;10.384;2023-02-28T20:25:16;2.27;;;1.83;;
16800;SDS011;8518;53.236;10.384;2023-02-28T20:28:08;3.73;;;2.10;;
16800;SDS011;8518;53.236;10.384;2023-02-28T20:30:34;4.53;;;2.23;;
16800;SDS011;8518;53.236;10.384;2023-02-28T20:36:46;2.53;;;1.77;;
16800;SDS011;8518;53.236;10.384;2023-02-28T20:39:12;3.20;;;2.37;;
16800;SDS011;8518;53.236;10.384;2023-02-28T20:41:38;2.67;;;2.30;;
16800;SDS011;8518;53.236;10.384;2023-02-28T20:44:10;4.03;;;2.50;;
16800;SDS011;8518;53.236;10.384;2023-02-28T20:46:37;4.73;;;3.20;;
16800;SDS011;8518;53.236;10.384;2023-02-28T20:49:10;4.50;;;3.10;;
16800;SDS011;8518;53.236;10.384;2023-02-28T20:55:00;3.53;;;2.37;;
16800;SDS011;8518;53.236;10.384;2023-02-28T20:57:52;5.03;;;2.73;;
16800;SDS011;8518;53.236;10.384;2023-02-28T21:00:22;3.03;;;1.90;;
16800;SDS011;8518;53.236;10.384;2023-02-28T21:06:12;3.93;;;2.00;;
16800;SDS011;8518;53.236;10.384;2023-02-28T21:08:39;4.23;;;2.30;;
16800;SDS011;8518;53.236;10.384;2023-02-28T21:11:08;4.40;;;1.80;;
16800;SDS011;8518;53.236;10.384;2023-02-28T21:17:00;3.27;;;1.90;;
16800;SDS011;8518;53.236;10.384;2023-02-28T21:19:26;4.13;;;2.07;;
16800;SDS011;8518;53.236;10.384;2023-02-28T21:25:17;4.87;;;3.27;;
16800;SDS011;8518;53.236;10.384;2023-02-28T21:31:06;5.60;;;4.30;;
16800;SDS011;8518;53.236;10.384;2023-02-28T21:36:55;4.90;;;3.47;;
16800;SDS011;8518;53.236;10.384;2023-02-28T21:39:22;4.73;;;3.37;;
16800;SDS011;8518;53.236;10.384;2023-02-28T21:45:11;5.60;;;3.00;;
16800;SDS011;8518;53.236;10.384;2023-02-28T21:51:00;4.03;;;2.93;;
16800;SDS011;8518;53.236;10.384;2023-02-28T21:56:50;3.37;;;2.87;;
16800;SDS011;8518;53.236;10.384;2023-02-28T21:59:16;4.40;;;3.20;;
16800;SDS011;8518;53.236;10.384;2023-02-28T22:01:43;6.03;;;3.73;;
16800;SDS011;8518;53.236;10.384;2023-02-28T22:04:10;7.50;;;4.13;;
16800;SDS011;8518;53.236;10.384;2023-02-28T22:06:46;8.13;;;4.67;;
16800;SDS011;8518;53.236;10.384;2023-02-28T22:09:16;6.57;;;4.40;;
16800;SDS011;8518;53.236;10.384;2023-02-28T22:11:42;6.67;;;4.33;;
16800;SDS011;8518;53.236;10.384;2023-02-28T22:14:08;5.23;;;3.93;;
16800;SDS011;8518;53.236;10.384;2023-02-28T22:16:35;6.53;;;4.00;;